sensor_id;sensor_type;location;lat;lon;timestamp;P1;durP1;ratioP1;P2;durP2;ratioP2
61015;SDS011;46902;52.920;6.536;2023-12-28T00:00:11;5.80;;;2.63;;
61015;SDS011;46902;52.920;6.536;2023-12-28T00:02:37;4.43;;;2.50;;
61015;SDS011;46902;52.920;6.536;2023-12-28T00:05:03;6.35;;;2.80;;
61015;SDS011;46902;52.920;6.536;2023-12-28T00:07:29;4.60;;;2.70;;
61015;SDS011;46902;52.920;6.536;2023-12-28T00:09:55;8.02;;;2.72;;
61015;SDS011;46902;52.920;6.536;2023-12-28T00:12:21;5.55;;;3.10;;
61015;SDS011;46902;52.920;6.536;2023-12-28T00:14:47;6.20;;;2.42;;
61015;SDS011;46902;52.920;6.536;2023-12-28T00:17:14;4.07;;;2.55;;
61015;SDS011;46902;52.920;6.536;2023-12-28T00:19:40;5.90;;;2.97;;
61015;SDS011;46902;52.920;6.536;2023-12-28T00:22:06;4.78;;;2.67;;
61015;SDS011;46902;52.920;6.536;2023-12-28T00:24:32;7.28;;;2.70;;
61015;SDS011;46902;52.920;6.536;2023-12-28T00:26:58;6.18;;;2.75;;
61015;SDS011;46902;52.920;6.536;2023-12-28T00:29:24;4.35;;;2.60;;
61015;SDS011;46902;52.920;6.536;2023-12-28T00:31:50;5.97;;;2.78;;
61015;SDS011;46902;52.920;6.536;2023-12-28T00:34:16;8.98;;;2.90;;
61015;SDS011;46902;52.920;6.536;2023-12-28T00:36:42;5.25;;;3.22;;
61015;SDS011;46902;52.920;6.536;2023-12-28T00:39:08;7.47;;;2.85;;
61015;SDS011;46902;52.920;6.536;2023-12-28T00:41:33;6.50;;;3.10;;
61015;SDS011;46902;52.920;6.536;2023-12-28T00:43:59;7.68;;;2.95;;
61015;SDS011;46902;52.920;6.536;2023-12-28T00:46:27;6.18;;;3.25;;
61015;SDS011;46902;52.920;6.536;2023-12-28T00:48:53;9.20;;;2.95;;
61015;SDS011;46902;52.920;6.536;2023-12-28T00:51:20;6.13;;;3.00;;
61015;SDS011;46902;52.920;6.536;2023-12-28T00:53:46;4.93;;;2.60;;
61015;SDS011;46902;52.920;6.536;2023-12-28T00:56:12;7.63;;;2.80;;
61015;SDS011;46902;52.920;6.536;2023-12-28T00:58:39;5.65;;;3.20;;
61015;SDS011;46902;52.920;6.536;2023-12-28T01:01:05;6.68;;;2.75;;
61015;SDS011;46902;52.920;6.536;2023-12-28T01:03:31;7.15;;;2.70;;
61015;SDS011;46902;52.920;6.536;2023-12-28T01:05:57;5.57;;;3.33;;
61015;SDS011;46902;52.920;6.536;2023-12-28T01:08:23;8.95;;;3.17;;
61015;SDS011;46902;52.920;6.536;2023-12-28T01:10:49;7.15;;;3.20;;
61015;SDS011;46902;52.920;6.536;2023-12-28T01:13:15;8.52;;;3.25;;
61015;SDS011;46902;52.920;6.536;2023-12-28T01:15:41;9.43;;;3.17;;
61015;SDS011;46902;52.920;6.536;2023-12-28T01:18:07;5.90;;;2.63;;
61015;SDS011;46902;52.920;6.536;2023-12-28T01:20:33;10.25;;;3.38;;
61015;SDS011;46902;52.920;6.536;2023-12-28T01:23:00;8.98;;;3.38;;
61015;SDS011;46902;52.920;6.536;2023-12-28T01:25:26;6.85;;;3.15;;
61015;SDS011;46902;52.920;6.536;2023-12-28T01:27:52;7.45;;;2.92;;
61015;SDS011;46902;52.920;6.536;2023-12-28T01:30:18;8.60;;;2.88;;
61015;SDS011;46902;52.920;6.536;2023-12-28T01:32:44;8.18;;;3.00;;
61015;SDS011;46902;52.920;6.536;2023-12-28T01:35:09;11.88;;;3.10;;
61015;SDS011;46902;52.920;6.536;2023-12-28T01:37:35;8.18;;;2.97;;
61015;SDS011;46902;52.920;6.536;2023-12-28T01:40:02;10.57;;;3.35;;
61015;SDS011;46902;52.920;6.536;2023-12-28T01:42:28;8.13;;;2.70;;
61015;SDS011;46902;52.920;6.536;2023-12-28T01:44:56;8.40;;;2.80;;
61015;SDS011;46902;52.920;6.536;2023-12-28T01:47:23;9.32;;;3.00;;
61015;SDS011;46902;52.920;6.536;2023-12-28T01:49:49;10.35;;;3.53;;
61015;SDS011;46902;52.920;6.536;2023-12-28T01:52:15;13.23;;;3.28;;
61015;SDS011;46902;52.920;6.536;2023-12-28T01:54:41;9.68;;;2.95;;
61015;SDS011;46902;52.920;6.536;2023-12-28T01:57:07;8.57;;;3.05;;
61015;SDS011;46902;52.920;6.536;2023-12-28T01:59:33;9.60;;;2.80;;
61015;SDS011;46902;52.920;6.536;2023-12-28T02:01:59;9.07;;;3.20;;
61015;SDS011;46902;52.920;6.536;2023-12-28T02:04:26;12.18;;;3.25;;
61015;SDS011;46902;52.920;6.536;2023-12-28T02:06:57;11.30;;;3.08;;
61015;SDS011;46902;52.920;6.536;2023-12-28T02:09:24;9.77;;;3.03;;
61015;SDS011;46902;52.920;6.536;2023-12-28T02:11:50;12.30;;;3.72;;
61015;SDS011;46902;52.920;6.536;2023-12-28T02:14:16;12.82;;;3.13;;
61015;SDS011;46902;52.920;6.536;2023-12-28T02:16:44;10.32;;;3.10;;
61015;SDS011;46902;52.920;6.536;2023-12-28T02:19:39;10.60;;;3.13;;
61015;SDS011;46902;52.920;6.536;2023-12-28T02:21:59;11.52;;;2.88;;
61015;SDS011;46902;52.920;6.536;2023-12-28T02:24:25;14.40;;;2.90;;
61015;SDS011;46902;52.920;6.536;2023-12-28T02:26:51;14.40;;;3.05;;
61015;SDS011;46902;52.920;6.536;2023-12-28T02:29:17;9.20;;;2.55;;
61015;SDS011;46902;52.920;6.536;2023-12-28T02:31:49;10.13;;;2.70;;
61015;SDS011;46902;52.920;6.536;2023-12-28T02:34:19;11.27;;;2.95;;
61015;SDS011;46902;52.920;6.536;2023-12-28T02:36:46;9.77;;;2.83;;
61015;SDS011;46902;52.920;6.536;2023-12-28T02:39:14;10.25;;;3.05;;
61015;SDS011;46902;52.920;6.536;2023-12-28T02:41:40;12.90;;;2.90;;
61015;SDS011;46902;52.920;6.536;2023-12-28T02:44:07;8.75;;;2.83;;
61015;SDS011;46902;52.920;6.536;2023-12-28T02:46:33;9.93;;;2.67;;
61015;SDS011;46902;52.920;6.536;2023-12-28T02:48:59;14.20;;;2.65;;
61015;SDS011;46902;52.920;6.536;2023-12-28T02:51:25;12.00;;;2.92;;
61015;SDS011;46902;52.920;6.536;2023-12-28T02:53:51;10.75;;;2.40;;
61015;SDS011;46902;52.920;6.536;2023-12-28T02:56:17;15.35;;;2.92;;
61015;SDS011;46902;52.920;6.536;2023-12-28T02:58:43;17.13;;;3.22;;
61015;SDS011;46902;52.920;6.536;2023-12-28T03:01:09;10.05;;;2.15;;
61015;SDS011;46902;52.920;6.536;2023-12-28T03:03:35;12.20;;;2.40;;
61015;SDS011;46902;52.920;6.536;2023-12-28T03:06:01;12.27;;;2.25;;
61015;SDS011;46902;52.920;6.536;2023-12-28T03:08:27;8.93;;;2.30;;
61015;SDS011;46902;52.920;6.536;2023-12-28T03:10:53;12.80;;;2.45;;
61015;SDS011;46902;52.920;6.536;2023-12-28T03:13:20;15.30;;;2.75;;
61015;SDS011;46902;52.920;6.536;2023-12-28T03:15:46;12.55;;;2.83;;
61015;SDS011;46902;52.920;6.536;2023-12-28T03:18:12;11.52;;;3.13;;
61015;SDS011;46902;52.920;6.536;2023-12-28T03:20:38;9.38;;;2.08;;
61015;SDS011;46902;52.920;6.536;2023-12-28T03:23:04;12.80;;;2.63;;
61015;SDS011;46902;52.920;6.536;2023-12-28T03:25:30;12.98;;;2.65;;
61015;SDS011;46902;52.920;6.536;2023-12-28T03:27:56;14.27;;;2.40;;
61015;SDS011;46902;52.920;6.536;2023-12-28T03:30:22;13.38;;;2.70;;
61015;SDS011;46902;52.920;6.536;2023-12-28T03:32:48;12.63;;;2.33;;
61015;SDS011;46902;52.920;6.536;2023-12-28T03:35:14;8.32;;;2.53;;
61015;SDS011;46902;52.920;6.536;2023-12-28T03:37:40;12.75;;;2.28;;
61015;SDS011;46902;52.920;6.536;2023-12-28T03:40:06;12.18;;;2.67;;
61015;SDS011;46902;52.920;6.536;2023-12-28T03:42:32;8.40;;;2.33;;
61015;SDS011;46902;52.920;6.536;2023-12-28T03:44:58;8.75;;;2.53;;
61015;SDS011;46902;52.920;6.536;2023-12-28T03:47:24;11.25;;;2.33;;
61015;SDS011;46902;52.920;6.536;2023-12-28T03:49:50;14.50;;;2.80;;
61015;SDS011;46902;52.920;6.536;2023-12-28T03:52:16;10.98;;;2.38;;
61015;SDS011;46902;52.920;6.536;2023-12-28T03:54:42;10.40;;;2.42;;
61015;SDS011;46902;52.920;6.536;2023-12-28T03:57:08;10.25;;;2.33;;
61015;SDS011;46902;52.920;6.536;2023-12-28T03:59:35;13.00;;;2.97;;
61015;SDS011;46902;52.920;6.536;2023-12-28T04:02:01;13.75;;;3.00;;
61015;SDS011;46902;52.920;6.536;2023-12-28T04:04:27;11.65;;;2.65;;
61015;SDS011;46902;52.920;6.536;2023-12-28T04:06:53;10.10;;;2.92;;
61015;SDS011;46902;52.920;6.536;2023-12-28T04:09:19;12.50;;;3.65;;
61015;SDS011;46902;52.920;6.536;2023-12-28T04:11:46;10.88;;;2.33;;
61015;SDS011;46902;52.920;6.536;2023-12-28T04:14:12;10.35;;;2.13;;
61015;SDS011;46902;52.920;6.536;2023-12-28T04:16:38;17.40;;;3.45;;
61015;SDS011;46902;52.920;6.536;2023-12-28T04:19:04;9.45;;;2.67;;
61015;SDS011;46902;52.920;6.536;2023-12-28T04:21:29;10.50;;;2.50;;
61015;SDS011;46902;52.920;6.536;2023-12-28T04:23:56;13.00;;;2.97;;
61015;SDS011;46902;52.920;6.536;2023-12-28T04:26:22;10.77;;;2.55;;
61015;SDS011;46902;52.920;6.536;2023-12-28T04:28:48;14.57;;;2.72;;
61015;SDS011;46902;52.920;6.536;2023-12-28T04:31:14;11.70;;;2.60;;
61015;SDS011;46902;52.920;6.536;2023-12-28T04:33:40;16.88;;;2.83;;
61015;SDS011;46902;52.920;6.536;2023-12-28T04:36:06;10.93;;;2.20;;
61015;SDS011;46902;52.920;6.536;2023-12-28T04:38:32;13.93;;;2.53;;
61015;SDS011;46902;52.920;6.536;2023-12-28T04:40:59;12.68;;;2.80;;
61015;SDS011;46902;52.920;6.536;2023-12-28T04:43:25;10.82;;;2.55;;
61015;SDS011;46902;52.920;6.536;2023-12-28T04:45:51;13.48;;;2.47;;
61015;SDS011;46902;52.920;6.536;2023-12-28T04:48:17;12.52;;;2.70;;
61015;SDS011;46902;52.920;6.536;2023-12-28T04:50:46;19.98;;;2.72;;
61015;SDS011;46902;52.920;6.536;2023-12-28T04:53:13;13.60;;;2.67;;
61015;SDS011;46902;52.920;6.536;2023-12-28T04:55:39;15.32;;;2.70;;
61015;SDS011;46902;52.920;6.536;2023-12-28T04:58:05;16.95;;;3.13;;
61015;SDS011;46902;52.920;6.536;2023-12-28T05:00:31;12.63;;;2.78;;
61015;SDS011;46902;52.920;6.536;2023-12-28T05:02:57;13.25;;;2.25;;
61015;SDS011;46902;52.920;6.536;2023-12-28T05:05:23;19.63;;;2.88;;
61015;SDS011;46902;52.920;6.536;2023-12-28T05:07:49;12.02;;;2.88;;
61015;SDS011;46902;52.920;6.536;2023-12-28T05:10:15;16.95;;;3.13;;
61015;SDS011;46902;52.920;6.536;2023-12-28T05:12:41;11.60;;;3.13;;
61015;SDS011;46902;52.920;6.536;2023-12-28T05:15:07;13.70;;;3.03;;
61015;SDS011;46902;52.920;6.536;2023-12-28T05:17:33;14.13;;;2.95;;
61015;SDS011;46902;52.920;6.536;2023-12-28T05:19:59;13.15;;;2.60;;
61015;SDS011;46902;52.920;6.536;2023-12-28T05:22:25;12.85;;;2.92;;
61015;SDS011;46902;52.920;6.536;2023-12-28T05:24:51;13.43;;;3.08;;
61015;SDS011;46902;52.920;6.536;2023-12-28T05:27:17;14.00;;;3.03;;
61015;SDS011;46902;52.920;6.536;2023-12-28T05:29:43;14.40;;;2.63;;
61015;SDS011;46902;52.920;6.536;2023-12-28T05:32:09;18.95;;;2.80;;
61015;SDS011;46902;52.920;6.536;2023-12-28T05:34:35;16.75;;;2.92;;
61015;SDS011;46902;52.920;6.536;2023-12-28T05:37:01;14.75;;;2.80;;
61015;SDS011;46902;52.920;6.536;2023-12-28T05:39:27;15.98;;;3.08;;
61015;SDS011;46902;52.920;6.536;2023-12-28T05:41:53;15.55;;;2.95;;
61015;SDS011;46902;52.920;6.536;2023-12-28T05:44:19;23.40;;;3.53;;
61015;SDS011;46902;52.920;6.536;2023-12-28T05:46:46;13.98;;;2.97;;
61015;SDS011;46902;52.920;6.536;2023-12-28T05:49:12;11.23;;;2.70;;
61015;SDS011;46902;52.920;6.536;2023-12-28T05:51:38;13.13;;;2.67;;
61015;SDS011;46902;52.920;6.536;2023-12-28T05:54:07;18.17;;;3.17;;
61015;SDS011;46902;52.920;6.536;2023-12-28T05:56:34;14.05;;;3.15;;
61015;SDS011;46902;52.920;6.536;2023-12-28T05:59:00;14.23;;;2.85;;
61015;SDS011;46902;52.920;6.536;2023-12-28T06:01:26;16.75;;;3.05;;
61015;SDS011;46902;52.920;6.536;2023-12-28T06:03:52;13.82;;;2.70;;
61015;SDS011;46902;52.920;6.536;2023-12-28T06:06:19;16.95;;;3.28;;
61015;SDS011;46902;52.920;6.536;2023-12-28T06:08:45;16.00;;;3.42;;
61015;SDS011;46902;52.920;6.536;2023-12-28T06:11:11;15.55;;;3.17;;
61015;SDS011;46902;52.920;6.536;2023-12-28T06:13:37;19.20;;;3.40;;
61015;SDS011;46902;52.920;6.536;2023-12-28T06:16:03;17.58;;;2.72;;
61015;SDS011;46902;52.920;6.536;2023-12-28T06:18:30;11.43;;;2.53;;
61015;SDS011;46902;52.920;6.536;2023-12-28T06:20:56;14.98;;;2.80;;
61015;SDS011;46902;52.920;6.536;2023-12-28T06:23:22;21.35;;;3.28;;
61015;SDS011;46902;52.920;6.536;2023-12-28T06:25:48;18.30;;;3.15;;
61015;SDS011;46902;52.920;6.536;2023-12-28T06:28:14;15.27;;;3.10;;
61015;SDS011;46902;52.920;6.536;2023-12-28T06:30:40;16.90;;;2.80;;
61015;SDS011;46902;52.920;6.536;2023-12-28T06:33:07;13.43;;;2.88;;
61015;SDS011;46902;52.920;6.536;2023-12-28T06:35:33;17.58;;;2.95;;
61015;SDS011;46902;52.920;6.536;2023-12-28T06:37:59;18.10;;;2.88;;
61015;SDS011;46902;52.920;6.536;2023-12-28T06:40:25;15.23;;;2.75;;
61015;SDS011;46902;52.920;6.536;2023-12-28T06:42:51;16.65;;;3.30;;
61015;SDS011;46902;52.920;6.536;2023-12-28T06:45:17;15.95;;;2.90;;
61015;SDS011;46902;52.920;6.536;2023-12-28T06:47:43;14.65;;;2.83;;
61015;SDS011;46902;52.920;6.536;2023-12-28T06:50:09;11.70;;;2.58;;
61015;SDS011;46902;52.920;6.536;2023-12-28T06:52:35;24.02;;;3.42;;
61015;SDS011;46902;52.920;6.536;2023-12-28T06:55:01;16.98;;;3.25;;
61015;SDS011;46902;52.920;6.536;2023-12-28T06:57:27;17.25;;;3.20;;
61015;SDS011;46902;52.920;6.536;2023-12-28T06:59:53;15.60;;;3.10;;
61015;SDS011;46902;52.920;6.536;2023-12-28T07:02:19;15.45;;;3.40;;
61015;SDS011;46902;52.920;6.536;2023-12-28T07:04:45;20.42;;;3.30;;
61015;SDS011;46902;52.920;6.536;2023-12-28T07:07:11;16.63;;;2.85;;
61015;SDS011;46902;52.920;6.536;2023-12-28T07:09:37;14.57;;;3.20;;
61015;SDS011;46902;52.920;6.536;2023-12-28T07:12:03;15.15;;;3.35;;
61015;SDS011;46902;52.920;6.536;2023-12-28T07:14:29;17.92;;;2.80;;
61015;SDS011;46902;52.920;6.536;2023-12-28T07:16:55;14.13;;;3.50;;
61015;SDS011;46902;52.920;6.536;2023-12-28T07:19:21;19.35;;;3.38;;
61015;SDS011;46902;52.920;6.536;2023-12-28T07:21:47;16.23;;;4.00;;
61015;SDS011;46902;52.920;6.536;2023-12-28T07:24:13;22.00;;;3.28;;
61015;SDS011;46902;52.920;6.536;2023-12-28T07:26:39;20.45;;;3.72;;
61015;SDS011;46902;52.920;6.536;2023-12-28T07:29:05;16.77;;;3.28;;
61015;SDS011;46902;52.920;6.536;2023-12-28T07:31:31;16.75;;;3.40;;
61015;SDS011;46902;52.920;6.536;2023-12-28T07:33:57;17.95;;;3.47;;
61015;SDS011;46902;52.920;6.536;2023-12-28T07:36:23;17.50;;;3.50;;
61015;SDS011;46902;52.920;6.536;2023-12-28T07:38:49;22.90;;;3.78;;
61015;SDS011;46902;52.920;6.536;2023-12-28T07:41:15;23.00;;;4.13;;
61015;SDS011;46902;52.920;6.536;2023-12-28T07:43:41;18.48;;;3.78;;
61015;SDS011;46902;52.920;6.536;2023-12-28T07:46:07;17.13;;;3.40;;
61015;SDS011;46902;52.920;6.536;2023-12-28T07:48:33;16.70;;;3.28;;
61015;SDS011;46902;52.920;6.536;2023-12-28T07:51:06;16.83;;;3.25;;
61015;SDS011;46902;52.920;6.536;2023-12-28T07:53:32;20.40;;;4.20;;
61015;SDS011;46902;52.920;6.536;2023-12-28T07:55:58;21.27;;;3.70;;
61015;SDS011;46902;52.920;6.536;2023-12-28T07:58:24;22.42;;;3.85;;
61015;SDS011;46902;52.920;6.536;2023-12-28T08:00:50;21.27;;;3.60;;
61015;SDS011;46902;52.920;6.536;2023-12-28T08:03:16;21.40;;;3.70;;
61015;SDS011;46902;52.920;6.536;2023-12-28T08:05:42;18.83;;;3.70;;
61015;SDS011;46902;52.920;6.536;2023-12-28T08:08:08;22.85;;;4.10;;
61015;SDS011;46902;52.920;6.536;2023-12-28T08:10:34;20.13;;;4.53;;
61015;SDS011;46902;52.920;6.536;2023-12-28T08:13:00;27.33;;;5.00;;
61015;SDS011;46902;52.920;6.536;2023-12-28T08:15:26;22.75;;;3.80;;
61015;SDS011;46902;52.920;6.536;2023-12-28T08:17:52;18.35;;;4.32;;
61015;SDS011;46902;52.920;6.536;2023-12-28T08:20:18;21.60;;;4.07;;
61015;SDS011;46902;52.920;6.536;2023-12-28T08:22:44;24.38;;;4.60;;
61015;SDS011;46902;52.920;6.536;2023-12-28T08:25:10;23.00;;;4.10;;
61015;SDS011;46902;52.920;6.536;2023-12-28T08:27:36;19.40;;;3.92;;
61015;SDS011;46902;52.920;6.536;2023-12-28T08:30:03;25.92;;;4.35;;
61015;SDS011;46902;52.920;6.536;2023-12-28T08:32:29;26.35;;;4.35;;
61015;SDS011;46902;52.920;6.536;2023-12-28T08:34:55;30.55;;;5.50;;
61015;SDS011;46902;52.920;6.536;2023-12-28T08:37:21;22.40;;;4.57;;
61015;SDS011;46902;52.920;6.536;2023-12-28T08:39:47;25.15;;;3.95;;
61015;SDS011;46902;52.920;6.536;2023-12-28T08:42:13;23.67;;;3.97;;
61015;SDS011;46902;52.920;6.536;2023-12-28T08:44:39;24.02;;;4.65;;
61015;SDS011;46902;52.920;6.536;2023-12-28T08:47:05;25.00;;;4.85;;
61015;SDS011;46902;52.920;6.536;2023-12-28T08:49:31;26.67;;;5.07;;
61015;SDS011;46902;52.920;6.536;2023-12-28T08:51:58;26.48;;;4.90;;
61015;SDS011;46902;52.920;6.536;2023-12-28T08:54:24;22.00;;;4.35;;
61015;SDS011;46902;52.920;6.536;2023-12-28T08:56:50;31.05;;;5.30;;
61015;SDS011;46902;52.920;6.536;2023-12-28T08:59:16;28.90;;;5.95;;
61015;SDS011;46902;52.920;6.536;2023-12-28T09:01:42;24.08;;;4.22;;
61015;SDS011;46902;52.920;6.536;2023-12-28T09:04:08;25.02;;;4.60;;
61015;SDS011;46902;52.920;6.536;2023-12-28T09:06:34;26.20;;;5.25;;
61015;SDS011;46902;52.920;6.536;2023-12-28T09:09:00;25.58;;;4.45;;
61015;SDS011;46902;52.920;6.536;2023-12-28T09:11:27;30.17;;;4.97;;
61015;SDS011;46902;52.920;6.536;2023-12-28T09:13:54;29.15;;;4.82;;
61015;SDS011;46902;52.920;6.536;2023-12-28T09:16:19;29.80;;;5.10;;
61015;SDS011;46902;52.920;6.536;2023-12-28T09:18:46;27.92;;;4.78;;
61015;SDS011;46902;52.920;6.536;2023-12-28T09:21:12;24.42;;;5.57;;
61015;SDS011;46902;52.920;6.536;2023-12-28T09:23:38;31.77;;;4.93;;
61015;SDS011;46902;52.920;6.536;2023-12-28T09:26:06;22.60;;;4.10;;
61015;SDS011;46902;52.920;6.536;2023-12-28T09:28:32;29.13;;;4.95;;
61015;SDS011;46902;52.920;6.536;2023-12-28T09:31:00;23.10;;;3.60;;
61015;SDS011;46902;52.920;6.536;2023-12-28T09:33:26;21.75;;;4.28;;
61015;SDS011;46902;52.920;6.536;2023-12-28T09:35:52;25.50;;;4.93;;
61015;SDS011;46902;52.920;6.536;2023-12-28T09:38:18;30.42;;;4.57;;
61015;SDS011;46902;52.920;6.536;2023-12-28T09:40:44;19.17;;;3.80;;
61015;SDS011;46902;52.920;6.536;2023-12-28T09:45:46;24.63;;;4.50;;
61015;SDS011;46902;52.920;6.536;2023-12-28T09:48:14;20.60;;;4.60;;
61015;SDS011;46902;52.920;6.536;2023-12-28T09:50:41;23.05;;;4.50;;
61015;SDS011;46902;52.920;6.536;2023-12-28T09:53:07;19.88;;;3.95;;
61015;SDS011;46902;52.920;6.536;2023-12-28T09:55:33;23.25;;;4.55;;
61015;SDS011;46902;52.920;6.536;2023-12-28T09:57:59;28.02;;;5.15;;
61015;SDS011;46902;52.920;6.536;2023-12-28T10:00:26;31.98;;;5.22;;
61015;SDS011;46902;52.920;6.536;2023-12-28T10:02:52;23.23;;;4.47;;
61015;SDS011;46902;52.920;6.536;2023-12-28T10:05:18;30.73;;;4.60;;
61015;SDS011;46902;52.920;6.536;2023-12-28T10:07:44;24.67;;;4.25;;
61015;SDS011;46902;52.920;6.536;2023-12-28T10:10:11;23.98;;;4.15;;
61015;SDS011;46902;52.920;6.536;2023-12-28T10:12:37;27.67;;;4.57;;
61015;SDS011;46902;52.920;6.536;2023-12-28T10:15:06;24.20;;;4.43;;
61015;SDS011;46902;52.920;6.536;2023-12-28T10:17:33;20.25;;;4.95;;
61015;SDS011;46902;52.920;6.536;2023-12-28T10:20:00;28.02;;;4.97;;
61015;SDS011;46902;52.920;6.536;2023-12-28T10:22:31;23.85;;;4.28;;
61015;SDS011;46902;52.920;6.536;2023-12-28T10:24:58;26.23;;;4.85;;
61015;SDS011;46902;52.920;6.536;2023-12-28T10:27:25;22.42;;;4.43;;
61015;SDS011;46902;52.920;6.536;2023-12-28T10:29:53;23.00;;;4.00;;
61015;SDS011;46902;52.920;6.536;2023-12-28T10:32:19;25.67;;;4.32;;
61015;SDS011;46902;52.920;6.536;2023-12-28T10:34:45;21.92;;;4.75;;
61015;SDS011;46902;52.920;6.536;2023-12-28T10:37:11;20.13;;;3.90;;
61015;SDS011;46902;52.920;6.536;2023-12-28T10:39:38;21.67;;;4.88;;
61015;SDS011;46902;52.920;6.536;2023-12-28T10:42:06;24.52;;;4.25;;
61015;SDS011;46902;52.920;6.536;2023-12-28T10:44:35;20.35;;;3.60;;
61015;SDS011;46902;52.920;6.536;2023-12-28T10:47:03;23.90;;;4.97;;
61015;SDS011;46902;52.920;6.536;2023-12-28T10:49:31;23.80;;;4.05;;
61015;SDS011;46902;52.920;6.536;2023-12-28T10:51:59;22.67;;;5.15;;
61015;SDS011;46902;52.920;6.536;2023-12-28T10:59:42;18.33;;;4.18;;
61015;SDS011;46902;52.920;6.536;2023-12-28T11:02:10;24.77;;;3.70;;
61015;SDS011;46902;52.920;6.536;2023-12-28T11:04:47;21.85;;;4.05;;
61015;SDS011;46902;52.920;6.536;2023-12-28T11:07:14;23.98;;;4.68;;
61015;SDS011;46902;52.920;6.536;2023-12-28T11:09:41;22.33;;;4.55;;
61015;SDS011;46902;52.920;6.536;2023-12-28T11:12:07;25.63;;;4.57;;
61015;SDS011;46902;52.920;6.536;2023-12-28T11:14:38;17.48;;;3.97;;
61015;SDS011;46902;52.920;6.536;2023-12-28T11:17:05;23.98;;;4.10;;
61015;SDS011;46902;52.920;6.536;2023-12-28T11:19:34;19.73;;;4.07;;
61015;SDS011;46902;52.920;6.536;2023-12-28T11:22:04;26.88;;;5.60;;
61015;SDS011;46902;52.920;6.536;2023-12-28T11:24:31;21.58;;;3.80;;
61015;SDS011;46902;52.920;6.536;2023-12-28T11:26:57;21.95;;;4.20;;
61015;SDS011;46902;52.920;6.536;2023-12-28T11:29:24;25.77;;;5.20;;
61015;SDS011;46902;52.920;6.536;2023-12-28T11:31:53;20.98;;;4.00;;
61015;SDS011;46902;52.920;6.536;2023-12-28T11:34:29;24.75;;;4.38;;
61015;SDS011;46902;52.920;6.536;2023-12-28T11:36:56;22.98;;;3.70;;
61015;SDS011;46902;52.920;6.536;2023-12-28T11:39:32;20.92;;;4.50;;
61015;SDS011;46902;52.920;6.536;2023-12-28T11:44:30;19.95;;;3.55;;
61015;SDS011;46902;52.920;6.536;2023-12-28T11:46:56;20.40;;;4.63;;
61015;SDS011;46902;52.920;6.536;2023-12-28T11:49:26;26.55;;;4.70;;
61015;SDS011;46902;52.920;6.536;2023-12-28T11:51:54;23.27;;;4.00;;
61015;SDS011;46902;52.920;6.536;2023-12-28T11:54:20;18.13;;;3.95;;
61015;SDS011;46902;52.920;6.536;2023-12-28T11:56:46;20.35;;;4.03;;
61015;SDS011;46902;52.920;6.536;2023-12-28T11:59:12;25.10;;;4.80;;
61015;SDS011;46902;52.920;6.536;2023-12-28T12:01:38;20.70;;;4.30;;
61015;SDS011;46902;52.920;6.536;2023-12-28T12:04:05;26.77;;;4.93;;
61015;SDS011;46902;52.920;6.536;2023-12-28T12:06:32;24.05;;;4.35;;
61015;SDS011;46902;52.920;6.536;2023-12-28T12:08:58;31.77;;;4.85;;
61015;SDS011;46902;52.920;6.536;2023-12-28T12:11:25;24.42;;;4.55;;
61015;SDS011;46902;52.920;6.536;2023-12-28T12:13:52;24.85;;;4.18;;
61015;SDS011;46902;52.920;6.536;2023-12-28T12:16:19;26.83;;;4.95;;
61015;SDS011;46902;52.920;6.536;2023-12-28T12:18:45;22.85;;;4.63;;
61015;SDS011;46902;52.920;6.536;2023-12-28T12:21:11;21.65;;;4.32;;
61015;SDS011;46902;52.920;6.536;2023-12-28T12:23:37;27.17;;;4.70;;
61015;SDS011;46902;52.920;6.536;2023-12-28T12:26:07;26.75;;;4.18;;
61015;SDS011;46902;52.920;6.536;2023-12-28T12:28:33;25.42;;;4.60;;
61015;SDS011;46902;52.920;6.536;2023-12-28T12:30:59;22.40;;;4.68;;
61015;SDS011;46902;52.920;6.536;2023-12-28T12:33:27;23.40;;;4.50;;
61015;SDS011;46902;52.920;6.536;2023-12-28T12:35:53;27.42;;;4.13;;
61015;SDS011;46902;52.920;6.536;2023-12-28T12:38:19;24.73;;;4.82;;
61015;SDS011;46902;52.920;6.536;2023-12-28T12:40:45;20.85;;;4.20;;
61015;SDS011;46902;52.920;6.536;2023-12-28T12:43:11;32.58;;;6.18;;
61015;SDS011;46902;52.920;6.536;2023-12-28T12:45:37;25.15;;;4.57;;
61015;SDS011;46902;52.920;6.536;2023-12-28T12:48:04;28.40;;;4.95;;
61015;SDS011;46902;52.920;6.536;2023-12-28T12:50:31;23.20;;;4.97;;
61015;SDS011;46902;52.920;6.536;2023-12-28T12:53:01;27.25;;;4.70;;
61015;SDS011;46902;52.920;6.536;2023-12-28T12:55:27;25.30;;;4.32;;
61015;SDS011;46902;52.920;6.536;2023-12-28T12:57:53;27.08;;;4.63;;
61015;SDS011;46902;52.920;6.536;2023-12-28T13:00:21;28.98;;;4.55;;
61015;SDS011;46902;52.920;6.536;2023-12-28T13:02:49;25.70;;;4.47;;
61015;SDS011;46902;52.920;6.536;2023-12-28T13:05:17;25.73;;;4.43;;
61015;SDS011;46902;52.920;6.536;2023-12-28T13:07:43;31.13;;;5.30;;
61015;SDS011;46902;52.920;6.536;2023-12-28T13:10:09;23.38;;;4.50;;
61015;SDS011;46902;52.920;6.536;2023-12-28T13:12:35;22.83;;;4.60;;
61015;SDS011;46902;52.920;6.536;2023-12-28T13:15:02;22.33;;;4.70;;
61015;SDS011;46902;52.920;6.536;2023-12-28T13:17:28;31.65;;;4.57;;
61015;SDS011;46902;52.920;6.536;2023-12-28T13:19:54;24.08;;;4.30;;
61015;SDS011;46902;52.920;6.536;2023-12-28T13:22:20;25.30;;;4.55;;
61015;SDS011;46902;52.920;6.536;2023-12-28T13:24:46;30.40;;;4.78;;
61015;SDS011;46902;52.920;6.536;2023-12-28T13:27:12;19.73;;;4.35;;
61015;SDS011;46902;52.920;6.536;2023-12-28T13:29:39;31.52;;;6.15;;
61015;SDS011;46902;52.920;6.536;2023-12-28T13:32:05;23.17;;;4.32;;
61015;SDS011;46902;52.920;6.536;2023-12-28T13:34:31;24.30;;;4.93;;
61015;SDS011;46902;52.920;6.536;2023-12-28T13:36:57;27.73;;;5.18;;
61015;SDS011;46902;52.920;6.536;2023-12-28T13:39:26;23.27;;;4.53;;
61015;SDS011;46902;52.920;6.536;2023-12-28T13:41:53;27.02;;;4.45;;
61015;SDS011;46902;52.920;6.536;2023-12-28T13:44:19;22.73;;;4.43;;
61015;SDS011;46902;52.920;6.536;2023-12-28T13:46:45;22.10;;;4.25;;
61015;SDS011;46902;52.920;6.536;2023-12-28T13:49:11;23.90;;;3.67;;
61015;SDS011;46902;52.920;6.536;2023-12-28T13:51:37;29.15;;;5.25;;
61015;SDS011;46902;52.920;6.536;2023-12-28T13:54:03;30.40;;;4.85;;
61015;SDS011;46902;52.920;6.536;2023-12-28T13:56:30;24.58;;;4.57;;
61015;SDS011;46902;52.920;6.536;2023-12-28T13:58:56;25.20;;;4.82;;
61015;SDS011;46902;52.920;6.536;2023-12-28T14:01:22;23.52;;;4.07;;
61015;SDS011;46902;52.920;6.536;2023-12-28T14:03:48;31.92;;;5.30;;
61015;SDS011;46902;52.920;6.536;2023-12-28T14:06:16;22.77;;;4.75;;
61015;SDS011;46902;52.920;6.536;2023-12-28T14:08:43;29.85;;;5.03;;
61015;SDS011;46902;52.920;6.536;2023-12-28T14:11:09;26.95;;;4.68;;
61015;SDS011;46902;52.920;6.536;2023-12-28T14:13:35;26.98;;;4.28;;
61015;SDS011;46902;52.920;6.536;2023-12-28T14:16:02;23.27;;;4.25;;
61015;SDS011;46902;52.920;6.536;2023-12-28T14:18:28;26.65;;;4.70;;
61015;SDS011;46902;52.920;6.536;2023-12-28T14:20:54;28.27;;;5.15;;
61015;SDS011;46902;52.920;6.536;2023-12-28T14:23:20;26.15;;;5.05;;
61015;SDS011;46902;52.920;6.536;2023-12-28T14:25:46;29.65;;;5.25;;
61015;SDS011;46902;52.920;6.536;2023-12-28T14:28:18;28.50;;;4.88;;
61015;SDS011;46902;52.920;6.536;2023-12-28T14:30:44;21.63;;;4.80;;
61015;SDS011;46902;52.920;6.536;2023-12-28T14:33:10;29.77;;;4.80;;
61015;SDS011;46902;52.920;6.536;2023-12-28T14:35:36;27.20;;;4.55;;
61015;SDS011;46902;52.920;6.536;2023-12-28T14:38:04;25.20;;;4.82;;
61015;SDS011;46902;52.920;6.536;2023-12-28T14:40:32;25.42;;;4.63;;